createdAt,value
2018-12-26T00:00:13.698Z,2.00
2018-12-26T00:02:54.743Z,2.00
2018-12-26T00:05:36.876Z,2.00
2018-12-26T00:08:18.306Z,2.00
2018-12-26T00:10:59.300Z,2.00
2018-12-26T00:13:40.967Z,2.00
2018-12-26T00:16:21.622Z,2.00
2018-12-26T00:19:02.550Z,2.00
2018-12-26T00:21:43.294Z,1.90
2018-12-26T00:24:23.879Z,1.90
2018-12-26T00:27:04.923Z,1.90
2018-12-26T00:29:48.870Z,1.90
2018-12-26T00:32:29.882Z,1.90
2018-12-26T00:35:09.578Z,1.90
2018-12-26T00:37:50.405Z,1.90
2018-12-26T00:40:31.605Z,2.00
2018-12-26T00:43:12.419Z,1.90
2018-12-26T00:45:53.562Z,1.90
2018-12-26T00:48:34.426Z,1.90
2018-12-26T00:51:15.272Z,1.90
2018-12-26T00:53:57.116Z,1.90
2018-12-26T00:56:38.731Z,1.90
2018-12-26T00:59:20.144Z,1.90
2018-12-26T01:02:01.224Z,2.00
2018-12-26T01:04:42.028Z,2.00
2018-12-26T01:07:23.011Z,2.00
2018-12-26T01:10:04.578Z,2.00
2018-12-26T01:12:44.268Z,2.00
2018-12-26T01:15:25.988Z,2.00
2018-12-26T01:18:05.567Z,2.00
2018-12-26T01:20:47.083Z,2.00
2018-12-26T01:23:28.418Z,2.00
2018-12-26T01:26:09.444Z,2.00
2018-12-26T01:28:51.103Z,2.00
2018-12-26T01:31:31.982Z,2.00
2018-12-26T01:34:13.734Z,2.00
2018-12-26T01:36:55.323Z,2.00
2018-12-26T01:39:37.287Z,2.00
2018-12-26T01:42:18.114Z,2.00
2018-12-26T01:44:59.826Z,2.00
2018-12-26T01:47:40.419Z,2.00
2018-12-26T01:50:22.178Z,2.00
2018-12-26T01:53:03.743Z,2.00
2018-12-26T01:55:44.671Z,2.00
2018-12-26T01:58:26.323Z,2.00
2018-12-26T02:01:07.796Z,2.00
2018-12-26T02:03:48.335Z,2.00
2018-12-26T02:06:29.215Z,2.00
2018-12-26T02:09:11.027Z,2.10
2018-12-26T02:11:52.530Z,2.00
2018-12-26T02:14:33.067Z,2.00
2018-12-26T02:17:12.447Z,2.00
2018-12-26T02:20:00.981Z,2.00
2018-12-26T02:22:42.168Z,2.00
2018-12-26T02:25:23.142Z,2.00
2018-12-26T02:28:03.663Z,2.00
2018-12-26T02:30:45.095Z,2.10
2018-12-26T02:33:26.529Z,2.00
2018-12-26T02:36:08.216Z,2.10
2018-12-26T02:38:50.099Z,2.00
2018-12-26T02:41:31.001Z,2.10
2018-12-26T02:44:12.303Z,2.00
2018-12-26T02:46:53.537Z,2.00
2018-12-26T02:49:33.597Z,2.00
2018-12-26T02:52:22.131Z,2.00
2018-12-26T02:55:03.617Z,2.00
2018-12-26T02:57:44.620Z,2.00
2018-12-26T03:00:24.488Z,2.00
2018-12-26T03:03:13.029Z,2.00
2018-12-26T03:05:53.666Z,2.00
2018-12-26T03:08:35.034Z,2.00
2018-12-26T03:11:15.727Z,2.00
2018-12-26T03:13:57.269Z,2.00
2018-12-26T03:16:38.567Z,2.00
2018-12-26T03:19:19.937Z,2.00
2018-12-26T03:22:01.568Z,2.00
2018-12-26T03:24:43.105Z,2.00
2018-12-26T03:27:24.799Z,2.00
2018-12-26T03:30:05.998Z,2.00
2018-12-26T03:32:46.836Z,2.00
2018-12-26T03:35:28.112Z,2.00
2018-12-26T03:38:09.070Z,2.00
2018-12-26T03:40:49.872Z,2.00
2018-12-26T03:43:30.781Z,2.00
2018-12-26T03:46:10.317Z,2.00
2018-12-26T03:48:58.896Z,2.00
2018-12-26T03:51:40.633Z,2.00
2018-12-26T03:54:21.762Z,2.00
2018-12-26T03:57:06.284Z,2.00
2018-12-26T03:59:46.012Z,2.00
2018-12-26T04:02:27.478Z,2.00
2018-12-26T04:05:08.611Z,2.00
2018-12-26T04:07:49.947Z,2.10
2018-12-26T04:10:31.135Z,2.00
2018-12-26T04:13:11.794Z,2.00
2018-12-26T04:15:51.628Z,2.00
2018-12-26T04:18:33.259Z,2.00
2018-12-26T04:21:13.924Z,2.00
2018-12-26T04:23:55.412Z,2.00
2018-12-26T04:26:36.590Z,2.00
2018-12-26T04:29:17.478Z,2.00
2018-12-26T04:31:58.059Z,2.00
2018-12-26T04:34:39.497Z,2.00
2018-12-26T04:37:20.805Z,2.00
2018-12-26T04:40:01.867Z,2.00
2018-12-26T04:42:42.583Z,2.00
2018-12-26T04:45:24.412Z,2.00
2018-12-26T04:48:05.493Z,2.10
2018-12-26T04:50:46.254Z,2.10
2018-12-26T04:53:27.367Z,2.00
2018-12-26T04:56:08.452Z,2.00
2018-12-26T04:58:49.348Z,2.00
2018-12-26T05:01:30.565Z,2.00
2018-12-26T05:04:10.297Z,2.10
2018-12-26T05:06:58.868Z,2.10
2018-12-26T05:09:41.055Z,2.10
2018-12-26T05:12:21.864Z,2.10
2018-12-26T05:15:03.103Z,2.10
2018-12-26T05:17:44.365Z,2.10
2018-12-26T05:20:25.362Z,2.10
2018-12-26T05:23:06.878Z,2.10
2018-12-26T05:25:48.939Z,2.10
2018-12-26T05:28:29.905Z,2.10
2018-12-26T05:31:10.842Z,2.10
2018-12-26T05:33:51.776Z,2.10
2018-12-26T05:36:32.719Z,2.10
2018-12-26T05:39:13.445Z,2.10
2018-12-26T05:41:54.231Z,2.10
2018-12-26T05:44:33.663Z,2.10
2018-12-26T05:47:22.196Z,2.10
2018-12-26T05:50:03.284Z,2.10
2018-12-26T05:52:43.274Z,2.10
2018-12-26T05:55:32.116Z,2.10
2018-12-26T05:58:13.596Z,2.10
2018-12-26T06:00:55.124Z,2.10
2018-12-26T06:03:36.285Z,2.10
2018-12-26T06:06:17.567Z,2.10
2018-12-26T06:08:59.297Z,2.10
2018-12-26T06:11:41.004Z,2.10
2018-12-26T06:14:22.751Z,2.10
2018-12-26T06:17:04.501Z,2.10
2018-12-26T06:19:45.965Z,2.10
2018-12-26T06:22:27.521Z,2.10
2018-12-26T06:25:09.351Z,2.10
2018-12-26T06:27:51.507Z,2.10
2018-12-26T06:30:33.487Z,2.10
2018-12-26T06:33:14.163Z,2.20
2018-12-26T06:35:55.517Z,2.20
2018-12-26T06:38:36.721Z,2.10
2018-12-26T06:41:18.423Z,2.10
2018-12-26T06:43:59.355Z,2.10
2018-12-26T06:46:40.481Z,2.10
2018-12-26T06:49:22.355Z,2.10
2018-12-26T06:52:03.324Z,2.10
2018-12-26T06:54:44.647Z,2.10
2018-12-26T06:57:26.236Z,2.10
2018-12-26T07:00:07.783Z,2.10
2018-12-26T07:02:48.732Z,2.10
2018-12-26T07:05:29.654Z,2.10
2018-12-26T07:08:11.172Z,2.10
2018-12-26T07:10:52.197Z,2.10
2018-12-26T07:13:33.240Z,2.10
2018-12-26T07:16:14.481Z,2.10
2018-12-26T07:18:55.964Z,2.10
2018-12-26T07:21:37.003Z,2.10
2018-12-26T07:24:18.327Z,2.10
2018-12-26T07:26:59.541Z,2.10
2018-12-26T07:29:40.259Z,2.20
2018-12-26T07:32:21.792Z,2.20
2018-12-26T07:35:03.411Z,2.20
2018-12-26T07:37:43.510Z,2.20
2018-12-26T07:40:24.907Z,2.20
2018-12-26T07:43:06.565Z,2.20
2018-12-26T07:45:48.031Z,2.20
2018-12-26T07:48:29.041Z,2.20
2018-12-26T07:51:17.687Z,2.20
2018-12-26T07:53:58.908Z,2.20
2018-12-26T07:56:38.223Z,2.20
2018-12-26T07:59:19.535Z,2.20
2018-12-26T08:02:00.938Z,2.30
2018-12-26T08:04:42.574Z,2.30
2018-12-26T08:07:23.606Z,2.30
2018-12-26T08:10:03.385Z,2.30
2018-12-26T08:12:45.117Z,2.30
2018-12-26T08:15:26.778Z,2.30
2018-12-26T08:18:07.408Z,2.30
2018-12-26T08:20:46.871Z,2.30
2018-12-26T08:23:28.083Z,2.30
2018-12-26T08:26:07.657Z,2.30
2018-12-26T08:28:56.259Z,2.30
2018-12-26T08:31:37.690Z,2.30
2018-12-26T08:34:17.046Z,2.30
2018-12-26T08:36:58.360Z,2.30
2018-12-26T08:39:39.505Z,2.30
2018-12-26T08:42:21.200Z,2.30
2018-12-26T08:45:02.540Z,2.30
2018-12-26T08:47:44.112Z,2.40
2018-12-26T08:50:23.933Z,2.30
2018-12-26T08:53:12.383Z,2.40
2018-12-26T08:55:53.773Z,2.40
2018-12-26T08:58:35.519Z,2.40
2018-12-26T09:01:17.202Z,2.40
2018-12-26T09:03:58.454Z,2.40
2018-12-26T09:06:40.037Z,2.40
2018-12-26T09:09:21.634Z,2.40
2018-12-26T09:12:02.731Z,2.40
2018-12-26T09:14:43.321Z,2.50
2018-12-26T09:17:22.639Z,2.50
2018-12-26T09:20:11.401Z,2.50
2018-12-26T09:22:53.215Z,2.50
2018-12-26T09:25:34.628Z,2.50
2018-12-26T09:28:15.450Z,2.50
2018-12-26T09:30:56.511Z,2.60
2018-12-26T09:33:35.945Z,2.60
2018-12-26T09:36:17.047Z,2.60
2018-12-26T09:38:58.117Z,2.60
2018-12-26T09:41:39.148Z,2.60
2018-12-26T09:44:20.911Z,2.60
2018-12-26T09:47:02.138Z,2.60
2018-12-26T09:49:43.705Z,2.70
2018-12-26T09:52:25.154Z,2.70
2018-12-26T09:55:05.768Z,2.70
2018-12-26T09:57:45.223Z,2.70
2018-12-26T10:00:33.849Z,2.70
2018-12-26T10:03:15.413Z,2.70
2018-12-26T10:05:56.607Z,2.70
2018-12-26T10:08:37.616Z,2.70
2018-12-26T10:11:19.358Z,2.80
2018-12-26T10:13:58.976Z,2.80
2018-12-26T10:16:47.666Z,2.80
2018-12-26T10:19:28.834Z,2.80
2018-12-26T10:22:10.633Z,2.80
2018-12-26T10:24:52.302Z,2.80
2018-12-26T10:27:34.211Z,2.80
2018-12-26T10:30:14.836Z,2.80
2018-12-26T10:32:55.904Z,2.90
2018-12-26T10:35:36.503Z,2.90
2018-12-26T10:38:17.554Z,2.90
2018-12-26T10:40:59.112Z,2.90
2018-12-26T10:43:38.775Z,2.90
2018-12-26T10:46:27.054Z,2.90
2018-12-26T10:49:08.797Z,2.90
2018-12-26T10:51:50.205Z,2.90
2018-12-26T10:54:31.857Z,2.90
2018-12-26T10:57:11.659Z,2.90
2018-12-26T10:59:51.064Z,2.90
2018-12-26T11:02:32.640Z,2.90
2018-12-26T11:05:13.668Z,3.00
2018-12-26T11:07:54.647Z,2.90
2018-12-26T11:10:35.310Z,3.00
2018-12-26T11:13:15.608Z,3.00
2018-12-26T11:16:03.957Z,3.00
2018-12-26T11:18:44.911Z,3.00
2018-12-26T11:21:24.531Z,3.00
2018-12-26T11:24:05.442Z,3.00
2018-12-26T11:26:47.373Z,3.00
2018-12-26T11:29:28.439Z,3.00
2018-12-26T11:32:10.069Z,3.00
2018-12-26T11:34:51.351Z,3.10
2018-12-26T11:37:32.234Z,3.10
2018-12-26T11:40:13.044Z,3.20
2018-12-26T11:42:53.880Z,3.20
2018-12-26T11:45:35.443Z,3.20
2018-12-26T11:48:16.658Z,3.20
2018-12-26T11:50:58.061Z,3.10
2018-12-26T11:53:39.906Z,3.10
2018-12-26T11:56:21.219Z,3.10
2018-12-26T11:59:01.858Z,3.10
2018-12-26T12:01:43.712Z,3.20
2018-12-26T12:04:25.551Z,3.20
2018-12-26T12:07:07.470Z,3.20
2018-12-26T12:09:48.413Z,3.10
2018-12-26T12:12:29.607Z,3.20
2018-12-26T12:15:11.177Z,3.20
2018-12-26T12:17:51.724Z,3.20
2018-12-26T12:20:33.039Z,3.20
2018-12-26T12:23:14.528Z,3.20
2018-12-26T12:25:56.062Z,3.20
2018-12-26T12:28:37.147Z,3.20
2018-12-26T12:31:17.607Z,3.20
2018-12-26T12:33:58.655Z,3.20
2018-12-26T12:36:39.996Z,3.20
2018-12-26T12:39:21.161Z,3.20
2018-12-26T12:42:02.431Z,3.20
2018-12-26T12:44:43.319Z,3.20
2018-12-26T12:47:23.785Z,3.20
2018-12-26T12:50:04.364Z,3.20
2018-12-26T12:52:45.049Z,3.20
2018-12-26T12:55:26.729Z,3.20
2018-12-26T12:58:07.787Z,3.20
2018-12-26T13:00:49.199Z,3.20
2018-12-26T13:03:29.899Z,3.20
2018-12-26T13:06:11.107Z,3.20
2018-12-26T13:08:52.103Z,3.20
2018-12-26T13:11:33.512Z,3.20
2018-12-26T13:14:14.963Z,3.20
2018-12-26T13:16:56.320Z,3.20
2018-12-26T13:19:37.206Z,3.20
2018-12-26T13:22:17.990Z,3.20
2018-12-26T13:24:57.906Z,3.20
2018-12-26T13:27:38.952Z,3.20
2018-12-26T13:30:20.303Z,3.30
2018-12-26T13:33:01.509Z,3.20
2018-12-26T13:35:42.632Z,3.20
2018-12-26T13:38:24.582Z,3.20
2018-12-26T13:41:05.691Z,3.20
2018-12-26T13:43:46.944Z,3.20
2018-12-26T13:46:33.722Z,3.20
2018-12-26T13:49:10.779Z,3.20
2018-12-26T13:51:51.885Z,3.20
2018-12-26T13:54:33.940Z,3.20
2018-12-26T13:57:15.407Z,3.20
2018-12-26T14:00:02.277Z,3.20
2018-12-26T14:02:37.644Z,3.20
2018-12-26T14:05:18.246Z,3.20
2018-12-26T14:07:59.699Z,3.20
2018-12-26T14:10:41.419Z,3.20
2018-12-26T14:13:21.713Z,3.20
2018-12-26T14:16:03.120Z,3.20
2018-12-26T14:18:44.316Z,3.20
2018-12-26T14:21:25.617Z,3.20
2018-12-26T14:24:06.642Z,3.20
2018-12-26T14:26:47.715Z,3.20
2018-12-26T14:29:29.259Z,3.10
2018-12-26T14:32:09.086Z,3.10
2018-12-26T14:34:57.976Z,3.10
2018-12-26T14:37:38.921Z,3.10
2018-12-26T14:40:20.219Z,3.10
2018-12-26T14:43:00.323Z,3.10
2018-12-26T14:45:41.838Z,3.10
2018-12-26T14:48:22.748Z,3.10
2018-12-26T14:51:02.622Z,3.10
2018-12-26T14:53:44.313Z,3.10
2018-12-26T14:56:25.151Z,3.10
2018-12-26T14:59:06.064Z,3.10
2018-12-26T15:01:47.616Z,3.00
2018-12-26T15:04:28.482Z,3.10
2018-12-26T15:07:10.179Z,3.10
2018-12-26T15:09:51.410Z,3.10
2018-12-26T15:12:31.964Z,3.10
2018-12-26T15:15:13.242Z,3.10
2018-12-26T15:17:54.809Z,3.00
2018-12-26T15:20:34.729Z,3.00
2018-12-26T15:23:23.290Z,3.10
2018-12-26T15:26:03.936Z,3.00
2018-12-26T15:28:44.718Z,3.00
2018-12-26T15:31:25.557Z,3.10
2018-12-26T15:34:06.913Z,3.00
2018-12-26T15:36:48.287Z,3.10
2018-12-26T15:39:29.095Z,3.10
2018-12-26T15:42:10.115Z,3.10
2018-12-26T15:44:51.574Z,3.10
2018-12-26T15:47:33.409Z,3.00
2018-12-26T15:50:12.811Z,3.00
2018-12-26T15:52:53.937Z,3.10
2018-12-26T15:55:35.615Z,3.00
2018-12-26T15:58:15.264Z,3.00
2018-12-26T16:01:03.783Z,3.00
2018-12-26T16:03:44.644Z,3.00
2018-12-26T16:06:26.460Z,3.00
2018-12-26T16:09:08.036Z,3.00
2018-12-26T16:11:49.240Z,3.10
2018-12-26T16:14:30.160Z,3.10
2018-12-26T16:17:11.652Z,3.10
2018-12-26T16:19:52.840Z,3.00
2018-12-26T16:22:32.690Z,3.00
2018-12-26T16:25:13.419Z,3.00
2018-12-26T16:27:54.728Z,3.10
2018-12-26T16:30:35.246Z,3.00
2018-12-26T16:33:16.160Z,3.00
2018-12-26T16:35:57.380Z,3.00
2018-12-26T16:38:39.152Z,3.00
2018-12-26T16:41:20.304Z,3.00
2018-12-26T16:44:01.326Z,3.00
2018-12-26T16:46:42.316Z,3.00
2018-12-26T16:49:23.575Z,3.00
2018-12-26T16:52:04.861Z,3.00
2018-12-26T16:54:46.055Z,2.90
2018-12-26T16:57:27.075Z,2.90
2018-12-26T17:00:08.915Z,2.90
2018-12-26T17:02:50.437Z,2.90
2018-12-26T17:05:31.554Z,2.90
2018-12-26T17:08:13.348Z,2.90
2018-12-26T17:10:54.960Z,2.90
2018-12-26T17:13:36.134Z,2.90
2018-12-26T17:16:17.092Z,2.90
2018-12-26T17:18:56.745Z,2.90
2018-12-26T17:21:38.288Z,2.90
2018-12-26T17:24:19.770Z,2.90
2018-12-26T17:26:59.384Z,2.90
2018-12-26T17:29:48.351Z,2.90
2018-12-26T17:32:29.402Z,2.90
2018-12-26T17:35:09.547Z,2.90
2018-12-26T17:37:50.717Z,2.90
2018-12-26T17:40:31.839Z,2.90
2018-12-26T17:43:12.917Z,2.90
2018-12-26T17:45:54.453Z,2.90
2018-12-26T17:48:35.674Z,2.90
2018-12-26T17:51:17.565Z,2.90
2018-12-26T17:54:24.970Z,2.90
2018-12-26T17:57:06.661Z,2.90
2018-12-26T17:59:47.722Z,2.90
2018-12-26T18:02:29.130Z,2.90
2018-12-26T18:05:10.675Z,2.90
2018-12-26T18:07:52.136Z,2.90
2018-12-26T18:10:33.058Z,2.90
2018-12-26T18:13:14.553Z,2.80
2018-12-26T18:15:55.363Z,2.90
2018-12-26T18:18:36.451Z,2.90
2018-12-26T18:21:17.485Z,2.90
2018-12-26T18:23:58.985Z,2.90
2018-12-26T18:26:39.651Z,2.90
2018-12-26T18:29:20.237Z,2.90
2018-12-26T18:32:00.831Z,2.90
2018-12-26T18:34:41.554Z,2.90
2018-12-26T18:37:22.092Z,2.80
2018-12-26T18:40:03.563Z,2.80
2018-12-26T18:42:44.823Z,2.80
2018-12-26T18:45:26.238Z,2.80
2018-12-26T18:48:07.560Z,2.80
2018-12-26T18:50:48.974Z,2.80
2018-12-26T18:53:30.246Z,2.80
2018-12-26T18:56:11.169Z,2.80
2018-12-26T18:58:50.861Z,2.80
2018-12-26T19:01:39.107Z,2.80
2018-12-26T19:04:20.362Z,2.80
2018-12-26T19:06:59.860Z,2.80
2018-12-26T19:09:41.037Z,2.80
2018-12-26T19:12:22.819Z,2.80
2018-12-26T19:15:04.488Z,2.80
2018-12-26T19:17:46.054Z,2.80
2018-12-26T19:20:27.656Z,2.80
2018-12-26T19:23:09.882Z,2.80
2018-12-26T19:25:50.975Z,2.80
2018-12-26T19:28:32.050Z,2.80
2018-12-26T19:31:13.272Z,2.80
2018-12-26T19:33:54.199Z,2.80
2018-12-26T19:36:34.091Z,2.80
2018-12-26T19:39:23.114Z,2.80
2018-12-26T19:42:04.594Z,2.80
2018-12-26T19:44:45.380Z,2.80
2018-12-26T19:47:26.604Z,2.80
2018-12-26T19:50:07.840Z,2.90
2018-12-26T19:52:47.559Z,2.80
2018-12-26T19:58:29.557Z,2.90
2018-12-26T20:01:10.944Z,2.80
2018-12-26T20:03:52.455Z,2.80
2018-12-26T20:06:33.853Z,2.90
2018-12-26T20:09:14.989Z,2.90
2018-12-26T20:11:56.373Z,2.80
2018-12-26T20:14:38.631Z,2.80
2018-12-26T20:17:19.435Z,2.90
2018-12-26T20:20:00.783Z,2.90
2018-12-26T20:22:42.507Z,2.90
2018-12-26T20:25:23.993Z,2.90
2018-12-26T20:28:05.948Z,2.90
2018-12-26T20:30:47.351Z,2.90
2018-12-26T20:33:28.856Z,2.90
2018-12-26T20:36:10.347Z,2.90
2018-12-26T20:38:49.981Z,2.90
2018-12-26T20:44:31.469Z,2.90
2018-12-26T20:47:12.125Z,2.90
2018-12-26T20:49:53.724Z,2.90
2018-12-26T20:52:35.003Z,2.90
2018-12-26T20:55:15.977Z,2.90
2018-12-26T20:57:57.364Z,2.90
2018-12-26T21:00:37.865Z,2.90
2018-12-26T21:03:17.439Z,2.90
2018-12-26T21:05:59.248Z,2.90
2018-12-26T21:08:40.783Z,2.90
2018-12-26T21:11:22.087Z,2.90
2018-12-26T21:14:02.763Z,2.90
2018-12-26T21:16:42.752Z,2.90
2018-12-26T21:19:23.385Z,2.90
2018-12-26T21:22:04.575Z,2.90
2018-12-26T21:24:44.700Z,2.90
2018-12-26T21:27:33.695Z,2.90
2018-12-26T21:30:14.689Z,2.90
2018-12-26T21:32:55.828Z,2.90
2018-12-26T21:35:37.634Z,2.90
2018-12-26T21:38:18.619Z,2.90
2018-12-26T21:41:00.260Z,2.90
2018-12-26T21:43:41.991Z,2.90
2018-12-26T21:46:23.350Z,3.00
2018-12-26T21:49:04.648Z,3.00
2018-12-26T21:51:46.068Z,3.00
2018-12-26T21:54:27.974Z,3.00
2018-12-26T21:57:08.848Z,3.00
2018-12-26T21:59:48.344Z,3.00
2018-12-26T22:02:29.137Z,3.00
2018-12-26T22:05:10.864Z,3.00
2018-12-26T22:07:52.383Z,3.00
2018-12-26T22:10:34.006Z,3.00
2018-12-26T22:13:15.271Z,3.00
2018-12-26T22:15:56.071Z,3.00
2018-12-26T22:18:35.820Z,3.00
2018-12-26T22:21:24.445Z,3.00
2018-12-26T22:24:05.276Z,3.00
2018-12-26T22:26:46.560Z,3.00
2018-12-26T22:29:27.481Z,3.00
2018-12-26T22:32:08.761Z,3.10
2018-12-26T22:34:49.984Z,3.00
2018-12-26T22:37:31.697Z,3.10
2018-12-26T22:40:12.826Z,3.10
2018-12-26T22:42:53.539Z,3.10
2018-12-26T22:45:32.959Z,3.10
2018-12-26T22:48:13.993Z,3.10
2018-12-26T22:50:55.888Z,3.10
2018-12-26T22:53:37.248Z,3.10
2018-12-26T22:56:18.826Z,3.10
2018-12-26T22:58:58.356Z,3.10
2018-12-26T23:01:39.215Z,3.10
2018-12-26T23:04:19.767Z,3.10
2018-12-26T23:06:59.086Z,3.10
2018-12-26T23:09:48.130Z,3.10
2018-12-26T23:12:29.243Z,3.10
2018-12-26T23:15:09.717Z,3.10
2018-12-26T23:17:58.431Z,3.10
2018-12-26T23:20:39.654Z,3.10
2018-12-26T23:23:21.463Z,3.10
2018-12-26T23:26:03.377Z,3.10
2018-12-26T23:28:44.455Z,3.10
2018-12-26T23:31:25.665Z,3.10
2018-12-26T23:34:06.633Z,3.10
2018-12-26T23:36:48.333Z,3.10
2018-12-26T23:39:27.760Z,3.10
2018-12-26T23:42:08.407Z,3.10
2018-12-26T23:44:49.158Z,3.10
2018-12-26T23:47:29.946Z,3.10
2018-12-26T23:50:11.226Z,3.10
2018-12-26T23:52:52.819Z,3.10
2018-12-26T23:55:34.335Z,3.10
2018-12-26T23:58:15.929Z,3.10
